Afton, VA

11:54 AM EDT on September 04, 2015 (GMT -0400)
Windridge Landscaping, Rockfish Valley | | Change Station
CLOSE
Current Station
Personal Weather Station
Location: Afton, VA
Elevation: 646 ft
Nearby Weather Stations

Elev 646 ft 37.94 °N, 78.84 °W | Updated 11 minutes ago

Clear
Clear
87.4 °F
Feels Like 93 °F
N
2.0
Wind Variable Wind from South
Gusts 4.0 mph

Today
High -- | Low -- °F
--% Chance of Precip.
Yesterday
High -- | Low -- °F
Precip. -- in
6:47 AM 7:40 PM
Waning Gibbous, 58% visible
Pressure 30.10 in
Visibility 10.0 miles
Clouds Clear
Heat Index 93 °F
Dew Point 71 °F
Humidity 58%
Rainfall 0.00 in
Snow Depth Not available.
UV 4.3 out of 12
Pollen 8.60 out of 12
Air Quality Not available.
Flu Activity Not available.
METAR KSHD 041535Z AUTO 04004KT 10SM CLR 29/21 A3010 RMK AO2 LTG DSNT E T02890209
Pressure 30.10 in
Visibility 10.0 miles
Clouds Clear
Heat Index 93 °F
Dew Point 71 °F
Humidity 58%
Rainfall 0.00 in
Snow Depth Not available.
UV 4.3 out of 12
Pollen 8.60 out of 12
Air Quality Not available.
Flu Activity Not available.
METAR KSHD 041535Z AUTO 04004KT 10SM CLR 29/21 A3010 RMK AO2 LTG DSNT E T02890209

10-Day Weather Forecast

×

Almanac

Astronomy

Sep. 04, 2015 Rise Set
Actual Time
Civil Twilight
Nautical Twilight
Astronomical Twilight
Moon
Length of Visible Light
Length of Day
Tomorrow will be .
, % of the Moon is Illuminated

Today's Extremes

State Highs State Lows

Community

WunderPhotos

Upload Photos

1,852,197 photos uploaded!

WunderBlogs® & News

Nearby

Air Quality

  Air Quality AQ Index Pollutant
Not available.

Snow Depth

Station Depth Elevation

Earthquake Activity

City Distance Mag. Time & Date
Minimum magnitude displayed is 2.5.

Coastal Water Temperatures

Place Temperature

Stations

Nearby Weather Stations

Station Location Temp. Windchill Dew Point Humidity Wind Precip. Elev Updated Type